sensor_id;sensor_type;location;lat;lon;timestamp;P1;durP1;ratioP1;P2;durP2;ratioP2
21060;SDS011;10689;50.836;3.266;2023-03-29T00:01:37;6.07;;;2.30;;
21060;SDS011;10689;50.836;3.266;2023-03-29T00:04:06;4.47;;;2.60;;
21060;SDS011;10689;50.836;3.266;2023-03-29T00:06:44;5.30;;;2.33;;
21060;SDS011;10689;50.836;3.266;2023-03-29T00:09:15;3.60;;;2.60;;
21060;SDS011;10689;50.836;3.266;2023-03-29T00:11:42;4.73;;;2.97;;
21060;SDS011;10689;50.836;3.266;2023-03-29T00:14:12;3.93;;;2.30;;
21060;SDS011;10689;50.836;3.266;2023-03-29T00:16:39;4.43;;;2.30;;
21060;SDS011;10689;50.836;3.266;2023-03-29T00:19:07;1.97;;;1.77;;
21060;SDS011;10689;50.836;3.266;2023-03-29T00:21:33;3.47;;;2.73;;
21060;SDS011;10689;50.836;3.266;2023-03-29T00:23:59;5.47;;;2.33;;
21060;SDS011;10689;50.836;3.266;2023-03-29T00:26:28;3.00;;;2.20;;
21060;SDS011;10689;50.836;3.266;2023-03-29T00:29:01;3.87;;;2.00;;
21060;SDS011;10689;50.836;3.266;2023-03-29T00:31:30;3.97;;;2.30;;
21060;SDS011;10689;50.836;3.266;2023-03-29T00:33:55;2.53;;;1.93;;
21060;SDS011;10689;50.836;3.266;2023-03-29T00:36:24;3.40;;;1.87;;
21060;SDS011;10689;50.836;3.266;2023-03-29T00:38:54;2.73;;;2.17;;
21060;SDS011;10689;50.836;3.266;2023-03-29T00:41:23;3.33;;;2.20;;
21060;SDS011;10689;50.836;3.266;2023-03-29T00:44:51;4.83;;;2.57;;
21060;SDS011;10689;50.836;3.266;2023-03-29T00:47:17;3.17;;;1.73;;
21060;SDS011;10689;50.836;3.266;2023-03-29T00:49:57;3.27;;;2.10;;
21060;SDS011;10689;50.836;3.266;2023-03-29T00:52:34;3.50;;;2.33;;
21060;SDS011;10689;50.836;3.266;2023-03-29T00:58:45;2.93;;;2.00;;
21060;SDS011;10689;50.836;3.266;2023-03-29T01:01:28;5.73;;;2.10;;
21060;SDS011;10689;50.836;3.266;2023-03-29T01:04:49;3.60;;;2.10;;
21060;SDS011;10689;50.836;3.266;2023-03-29T01:10:29;2.20;;;1.97;;
21060;SDS011;10689;50.836;3.266;2023-03-29T01:13:11;2.20;;;1.90;;
21060;SDS011;10689;50.836;3.266;2023-03-29T01:15:41;2.80;;;2.07;;
21060;SDS011;10689;50.836;3.266;2023-03-29T01:18:15;3.23;;;1.67;;
21060;SDS011;10689;50.836;3.266;2023-03-29T01:23:41;3.27;;;1.93;;
21060;SDS011;10689;50.836;3.266;2023-03-29T01:29:19;2.33;;;1.90;;
21060;SDS011;10689;50.836;3.266;2023-03-29T01:31:52;1.93;;;1.73;;
21060;SDS011;10689;50.836;3.266;2023-03-29T01:34:34;1.97;;;1.80;;
21060;SDS011;10689;50.836;3.266;2023-03-29T01:37:13;2.83;;;1.77;;
21060;SDS011;10689;50.836;3.266;2023-03-29T01:39:54;1.77;;;1.63;;
21060;SDS011;10689;50.836;3.266;2023-03-29T01:45:53;3.63;;;1.83;;
21060;SDS011;10689;50.836;3.266;2023-03-29T01:48:30;1.60;;;1.50;;
21060;SDS011;10689;50.836;3.266;2023-03-29T01:53:47;2.20;;;2.00;;
21060;SDS011;10689;50.836;3.266;2023-03-29T01:56:27;2.47;;;1.80;;
21060;SDS011;10689;50.836;3.266;2023-03-29T01:59:05;3.63;;;2.13;;
21060;SDS011;10689;50.836;3.266;2023-03-29T02:01:55;2.77;;;1.77;;
21060;SDS011;10689;50.836;3.266;2023-03-29T02:04:30;2.13;;;1.70;;
21060;SDS011;10689;50.836;3.266;2023-03-29T02:07:13;2.33;;;1.80;;
21060;SDS011;10689;50.836;3.266;2023-03-29T02:09:44;2.13;;;1.60;;
21060;SDS011;10689;50.836;3.266;2023-03-29T02:12:20;1.87;;;1.77;;
21060;SDS011;10689;50.836;3.266;2023-03-29T02:14:49;2.73;;;2.13;;
21060;SDS011;10689;50.836;3.266;2023-03-29T02:20:47;2.37;;;2.13;;
21060;SDS011;10689;50.836;3.266;2023-03-29T02:23:40;3.07;;;2.10;;
21060;SDS011;10689;50.836;3.266;2023-03-29T02:26:45;2.57;;;2.30;;
21060;SDS011;10689;50.836;3.266;2023-03-29T02:29:13;2.70;;;1.90;;
21060;SDS011;10689;50.836;3.266;2023-03-29T02:31:50;3.13;;;2.07;;
21060;SDS011;10689;50.836;3.266;2023-03-29T02:34:37;4.57;;;2.00;;
21060;SDS011;10689;50.836;3.266;2023-03-29T02:37:27;5.90;;;1.90;;
21060;SDS011;10689;50.836;3.266;2023-03-29T02:40:04;2.20;;;2.00;;
21060;SDS011;10689;50.836;3.266;2023-03-29T02:42:33;4.37;;;1.90;;
21060;SDS011;10689;50.836;3.266;2023-03-29T02:45:03;2.17;;;1.97;;
21060;SDS011;10689;50.836;3.266;2023-03-29T02:47:49;2.57;;;1.97;;
21060;SDS011;10689;50.836;3.266;2023-03-29T02:50:18;3.03;;;2.10;;
21060;SDS011;10689;50.836;3.266;2023-03-29T02:52:50;4.70;;;2.03;;
21060;SDS011;10689;50.836;3.266;2023-03-29T02:55:20;2.17;;;1.97;;
21060;SDS011;10689;50.836;3.266;2023-03-29T02:57:59;2.03;;;1.80;;
21060;SDS011;10689;50.836;3.266;2023-03-29T03:00:31;3.10;;;2.30;;
21060;SDS011;10689;50.836;3.266;2023-03-29T03:03:06;3.67;;;2.20;;
21060;SDS011;10689;50.836;3.266;2023-03-29T03:05:33;2.57;;;2.00;;
21060;SDS011;10689;50.836;3.266;2023-03-29T03:07:59;3.47;;;2.20;;
21060;SDS011;10689;50.836;3.266;2023-03-29T03:10:29;5.03;;;2.10;;
21060;SDS011;10689;50.836;3.266;2023-03-29T03:13:04;3.00;;;2.10;;
21060;SDS011;10689;50.836;3.266;2023-03-29T03:15:31;2.80;;;2.13;;
21060;SDS011;10689;50.836;3.266;2023-03-29T03:18:09;2.40;;;2.10;;
21060;SDS011;10689;50.836;3.266;2023-03-29T03:20:58;3.10;;;2.20;;
21060;SDS011;10689;50.836;3.266;2023-03-29T03:23:54;2.53;;;2.20;;
21060;SDS011;10689;50.836;3.266;2023-03-29T03:26:43;6.03;;;2.27;;
21060;SDS011;10689;50.836;3.266;2023-03-29T03:29:10;2.63;;;1.93;;
21060;SDS011;10689;50.836;3.266;2023-03-29T03:31:55;2.07;;;1.80;;
21060;SDS011;10689;50.836;3.266;2023-03-29T03:34:24;2.90;;;2.20;;
21060;SDS011;10689;50.836;3.266;2023-03-29T03:36:50;3.73;;;2.30;;
21060;SDS011;10689;50.836;3.266;2023-03-29T03:39:16;6.90;;;2.70;;
21060;SDS011;10689;50.836;3.266;2023-03-29T03:41:50;4.20;;;2.20;;
21060;SDS011;10689;50.836;3.266;2023-03-29T03:44:19;4.33;;;2.63;;
21060;SDS011;10689;50.836;3.266;2023-03-29T03:46:45;2.03;;;1.80;;
21060;SDS011;10689;50.836;3.266;2023-03-29T03:49:11;3.13;;;2.40;;
21060;SDS011;10689;50.836;3.266;2023-03-29T03:51:49;4.17;;;2.33;;
21060;SDS011;10689;50.836;3.266;2023-03-29T03:54:35;5.23;;;2.20;;
21060;SDS011;10689;50.836;3.266;2023-03-29T03:57:03;3.07;;;2.27;;
21060;SDS011;10689;50.836;3.266;2023-03-29T03:59:32;5.30;;;2.47;;
21060;SDS011;10689;50.836;3.266;2023-03-29T04:02:00;2.92;;;2.30;;
21060;SDS011;10689;50.836;3.266;2023-03-29T04:04:26;3.07;;;2.30;;
21060;SDS011;10689;50.836;3.266;2023-03-29T04:07:10;3.20;;;2.40;;
21060;SDS011;10689;50.836;3.266;2023-03-29T04:09:40;5.33;;;2.90;;
21060;SDS011;10689;50.836;3.266;2023-03-29T04:12:38;3.90;;;2.37;;
21060;SDS011;10689;50.836;3.266;2023-03-29T04:15:04;4.53;;;2.53;;
21060;SDS011;10689;50.836;3.266;2023-03-29T04:17:34;3.20;;;2.57;;
21060;SDS011;10689;50.836;3.266;2023-03-29T04:20:07;3.33;;;2.23;;
21060;SDS011;10689;50.836;3.266;2023-03-29T04:22:41;2.37;;;1.90;;
21060;SDS011;10689;50.836;3.266;2023-03-29T04:25:08;4.60;;;2.20;;
21060;SDS011;10689;50.836;3.266;2023-03-29T04:27:36;5.93;;;2.60;;
21060;SDS011;10689;50.836;3.266;2023-03-29T04:30:03;2.40;;;2.00;;
21060;SDS011;10689;50.836;3.266;2023-03-29T04:32:31;4.83;;;2.77;;
21060;SDS011;10689;50.836;3.266;2023-03-29T04:35:12;4.57;;;2.80;;
21060;SDS011;10689;50.836;3.266;2023-03-29T04:37:59;4.90;;;2.87;;
21060;SDS011;10689;50.836;3.266;2023-03-29T04:40:28;4.30;;;3.10;;
21060;SDS011;10689;50.836;3.266;2023-03-29T04:43:00;4.80;;;3.00;;
21060;SDS011;10689;50.836;3.266;2023-03-29T04:45:26;4.43;;;2.90;;
21060;SDS011;10689;50.836;3.266;2023-03-29T04:47:55;3.70;;;3.07;;
21060;SDS011;10689;50.836;3.266;2023-03-29T04:50:23;4.07;;;3.20;;
21060;SDS011;10689;50.836;3.266;2023-03-29T04:52:55;5.70;;;3.17;;
21060;SDS011;10689;50.836;3.266;2023-03-29T04:55:21;3.43;;;2.90;;
21060;SDS011;10689;50.836;3.266;2023-03-29T04:57:47;5.43;;;3.67;;
21060;SDS011;10689;50.836;3.266;2023-03-29T05:00:13;3.53;;;2.67;;
21060;SDS011;10689;50.836;3.266;2023-03-29T05:02:44;4.57;;;3.50;;
21060;SDS011;10689;50.836;3.266;2023-03-29T05:05:12;3.67;;;2.57;;
21060;SDS011;10689;50.836;3.266;2023-03-29T05:07:43;3.27;;;2.70;;
21060;SDS011;10689;50.836;3.266;2023-03-29T05:10:16;3.43;;;3.00;;
21060;SDS011;10689;50.836;3.266;2023-03-29T05:12:43;3.03;;;2.73;;
21060;SDS011;10689;50.836;3.266;2023-03-29T05:15:10;6.90;;;3.03;;
21060;SDS011;10689;50.836;3.266;2023-03-29T05:17:36;2.80;;;2.30;;
21060;SDS011;10689;50.836;3.266;2023-03-29T05:20:06;3.93;;;3.00;;
21060;SDS011;10689;50.836;3.266;2023-03-29T05:22:41;6.33;;;3.10;;
21060;SDS011;10689;50.836;3.266;2023-03-29T05:25:08;4.83;;;2.87;;
21060;SDS011;10689;50.836;3.266;2023-03-29T05:30:37;5.17;;;2.73;;
21060;SDS011;10689;50.836;3.266;2023-03-29T05:33:04;7.13;;;3.00;;
21060;SDS011;10689;50.836;3.266;2023-03-29T05:35:33;5.53;;;3.13;;
21060;SDS011;10689;50.836;3.266;2023-03-29T05:38:03;6.30;;;2.93;;
21060;SDS011;10689;50.836;3.266;2023-03-29T05:40:40;5.70;;;2.93;;
21060;SDS011;10689;50.836;3.266;2023-03-29T05:46:55;3.97;;;2.93;;
21060;SDS011;10689;50.836;3.266;2023-03-29T05:49:29;6.17;;;3.30;;
21060;SDS011;10689;50.836;3.266;2023-03-29T05:52:08;3.07;;;2.73;;
21060;SDS011;10689;50.836;3.266;2023-03-29T05:54:51;7.03;;;3.03;;
21060;SDS011;10689;50.836;3.266;2023-03-29T05:57:25;3.50;;;2.70;;
21060;SDS011;10689;50.836;3.266;2023-03-29T06:00:03;5.33;;;3.00;;
21060;SDS011;10689;50.836;3.266;2023-03-29T06:03:14;6.63;;;3.13;;
21060;SDS011;10689;50.836;3.266;2023-03-29T06:06:05;3.93;;;3.10;;
21060;SDS011;10689;50.836;3.266;2023-03-29T06:08:44;2.97;;;2.57;;
21060;SDS011;10689;50.836;3.266;2023-03-29T06:11:32;3.17;;;2.80;;
21060;SDS011;10689;50.836;3.266;2023-03-29T06:14:29;4.97;;;3.30;;
21060;SDS011;10689;50.836;3.266;2023-03-29T06:17:36;3.97;;;2.67;;
21060;SDS011;10689;50.836;3.266;2023-03-29T06:20:10;4.20;;;2.93;;
21060;SDS011;10689;50.836;3.266;2023-03-29T06:22:57;3.70;;;2.43;;
21060;SDS011;10689;50.836;3.266;2023-03-29T06:25:32;12.10;;;3.17;;
21060;SDS011;10689;50.836;3.266;2023-03-29T06:28:43;3.57;;;2.67;;
21060;SDS011;10689;50.836;3.266;2023-03-29T06:31:20;7.87;;;3.03;;
21060;SDS011;10689;50.836;3.266;2023-03-29T06:34:36;6.82;;;3.13;;
21060;SDS011;10689;50.836;3.266;2023-03-29T06:36:49;7.33;;;2.83;;
21060;SDS011;10689;50.836;3.266;2023-03-29T06:39:26;3.63;;;2.97;;
21060;SDS011;10689;50.836;3.266;2023-03-29T06:45:15;4.13;;;3.07;;
21060;SDS011;10689;50.836;3.266;2023-03-29T06:48:02;4.50;;;3.13;;
21060;SDS011;10689;50.836;3.266;2023-03-29T06:50:46;3.87;;;3.03;;
21060;SDS011;10689;50.836;3.266;2023-03-29T06:53:30;3.97;;;3.30;;
21060;SDS011;10689;50.836;3.266;2023-03-29T06:56:28;4.77;;;3.13;;
21060;SDS011;10689;50.836;3.266;2023-03-29T06:59:05;4.27;;;3.63;;
21060;SDS011;10689;50.836;3.266;2023-03-29T07:01:36;4.43;;;2.90;;
21060;SDS011;10689;50.836;3.266;2023-03-29T07:04:04;4.03;;;3.35;;
21060;SDS011;10689;50.836;3.266;2023-03-29T07:06:35;6.20;;;3.30;;
21060;SDS011;10689;50.836;3.266;2023-03-29T07:09:32;4.63;;;3.38;;
21060;SDS011;10689;50.836;3.266;2023-03-29T07:11:59;4.20;;;3.20;;
21060;SDS011;10689;50.836;3.266;2023-03-29T07:14:35;5.75;;;3.28;;
21060;SDS011;10689;50.836;3.266;2023-03-29T07:17:01;3.22;;;2.72;;
21060;SDS011;10689;50.836;3.266;2023-03-29T07:19:28;3.35;;;3.03;;
21060;SDS011;10689;50.836;3.266;2023-03-29T07:21:57;7.40;;;3.67;;
21060;SDS011;10689;50.836;3.266;2023-03-29T07:24:22;7.45;;;3.30;;
21060;SDS011;10689;50.836;3.266;2023-03-29T07:26:48;3.30;;;2.60;;
21060;SDS011;10689;50.836;3.266;2023-03-29T07:29:15;5.60;;;3.03;;
21060;SDS011;10689;50.836;3.266;2023-03-29T07:31:44;5.35;;;2.90;;
21060;SDS011;10689;50.836;3.266;2023-03-29T07:34:10;5.47;;;3.42;;
21060;SDS011;10689;50.836;3.266;2023-03-29T07:36:37;4.30;;;3.30;;
21060;SDS011;10689;50.836;3.266;2023-03-29T07:39:03;4.53;;;3.35;;
21060;SDS011;10689;50.836;3.266;2023-03-29T07:41:30;4.90;;;3.28;;
21060;SDS011;10689;50.836;3.266;2023-03-29T07:43:56;5.07;;;3.38;;
21060;SDS011;10689;50.836;3.266;2023-03-29T07:46:23;6.25;;;3.20;;
21060;SDS011;10689;50.836;3.266;2023-03-29T07:48:49;5.93;;;3.20;;
21060;SDS011;10689;50.836;3.266;2023-03-29T07:51:16;9.57;;;3.92;;
21060;SDS011;10689;50.836;3.266;2023-03-29T07:53:41;5.07;;;3.63;;
21060;SDS011;10689;50.836;3.266;2023-03-29T07:56:07;5.72;;;3.42;;
21060;SDS011;10689;50.836;3.266;2023-03-29T07:58:33;4.55;;;3.25;;
21060;SDS011;10689;50.836;3.266;2023-03-29T08:00:59;5.82;;;3.53;;
21060;SDS011;10689;50.836;3.266;2023-03-29T08:03:25;5.72;;;3.97;;
21060;SDS011;10689;50.836;3.266;2023-03-29T08:05:52;8.00;;;3.75;;
21060;SDS011;10689;50.836;3.266;2023-03-29T08:08:18;4.95;;;3.63;;
21060;SDS011;10689;50.836;3.266;2023-03-29T08:10:44;6.07;;;3.35;;
21060;SDS011;10689;50.836;3.266;2023-03-29T08:13:09;6.00;;;3.85;;
21060;SDS011;10689;50.836;3.266;2023-03-29T08:15:35;4.95;;;4.00;;
21060;SDS011;10689;50.836;3.266;2023-03-29T08:18:10;3.75;;;3.30;;
21060;SDS011;10689;50.836;3.266;2023-03-29T08:20:35;4.20;;;3.30;;
21060;SDS011;10689;50.836;3.266;2023-03-29T08:23:01;7.68;;;3.42;;
21060;SDS011;10689;50.836;3.266;2023-03-29T08:25:27;4.20;;;3.55;;
21060;SDS011;10689;50.836;3.266;2023-03-29T08:27:53;5.78;;;3.75;;
21060;SDS011;10689;50.836;3.266;2023-03-29T08:30:19;7.05;;;3.88;;
21060;SDS011;10689;50.836;3.266;2023-03-29T08:32:44;4.53;;;4.05;;
21060;SDS011;10689;50.836;3.266;2023-03-29T08:35:11;5.32;;;3.95;;
21060;SDS011;10689;50.836;3.266;2023-03-29T08:37:37;4.30;;;3.47;;
21060;SDS011;10689;50.836;3.266;2023-03-29T08:40:03;6.05;;;4.03;;
21060;SDS011;10689;50.836;3.266;2023-03-29T08:48:10;5.07;;;3.65;;
21060;SDS011;10689;50.836;3.266;2023-03-29T08:50:43;6.43;;;3.90;;
21060;SDS011;10689;50.836;3.266;2023-03-29T08:53:16;5.13;;;3.50;;
21060;SDS011;10689;50.836;3.266;2023-03-29T08:55:58;6.03;;;3.60;;
21060;SDS011;10689;50.836;3.266;2023-03-29T08:58:32;7.30;;;3.72;;
21060;SDS011;10689;50.836;3.266;2023-03-29T09:00:59;5.50;;;3.58;;
21060;SDS011;10689;50.836;3.266;2023-03-29T09:03:41;5.50;;;3.38;;
21060;SDS011;10689;50.836;3.266;2023-03-29T09:06:13;4.55;;;3.08;;
21060;SDS011;10689;50.836;3.266;2023-03-29T09:08:44;4.40;;;3.20;;
21060;SDS011;10689;50.836;3.266;2023-03-29T09:17:19;5.50;;;3.72;;
21060;SDS011;10689;50.836;3.266;2023-03-29T09:19:54;5.05;;;2.88;;
21060;SDS011;10689;50.836;3.266;2023-03-29T09:22:50;5.57;;;3.45;;
21060;SDS011;10689;50.836;3.266;2023-03-29T09:33:45;6.85;;;3.20;;
21060;SDS011;10689;50.836;3.266;2023-03-29T09:38:57;5.45;;;3.42;;
21060;SDS011;10689;50.836;3.266;2023-03-29T09:41:40;5.03;;;2.40;;
21060;SDS011;10689;50.836;3.266;2023-03-29T09:44:13;5.43;;;3.03;;
21060;SDS011;10689;50.836;3.266;2023-03-29T09:46:47;5.88;;;2.75;;
21060;SDS011;10689;50.836;3.266;2023-03-29T09:49:19;4.30;;;3.00;;
21060;SDS011;10689;50.836;3.266;2023-03-29T09:51:50;16.35;;;4.18;;
21060;SDS011;10689;50.836;3.266;2023-03-29T09:54:16;3.00;;;2.50;;
21060;SDS011;10689;50.836;3.266;2023-03-29T09:56:42;3.97;;;3.20;;
21060;SDS011;10689;50.836;3.266;2023-03-29T09:59:09;4.53;;;2.97;;
21060;SDS011;10689;50.836;3.266;2023-03-29T10:01:37;3.92;;;2.78;;
21060;SDS011;10689;50.836;3.266;2023-03-29T10:04:05;5.50;;;3.20;;
21060;SDS011;10689;50.836;3.266;2023-03-29T10:06:33;3.92;;;2.90;;
21060;SDS011;10689;50.836;3.266;2023-03-29T10:09:00;4.57;;;3.08;;
21060;SDS011;10689;50.836;3.266;2023-03-29T10:11:32;7.18;;;3.90;;
21060;SDS011;10689;50.836;3.266;2023-03-29T10:14:04;5.97;;;3.15;;
21060;SDS011;10689;50.836;3.266;2023-03-29T10:16:39;5.55;;;3.53;;
21060;SDS011;10689;50.836;3.266;2023-03-29T10:19:22;4.30;;;3.10;;
21060;SDS011;10689;50.836;3.266;2023-03-29T10:21:51;4.63;;;2.63;;
21060;SDS011;10689;50.836;3.266;2023-03-29T10:24:19;3.10;;;2.72;;
21060;SDS011;10689;50.836;3.266;2023-03-29T10:26:47;4.03;;;2.60;;
21060;SDS011;10689;50.836;3.266;2023-03-29T10:29:19;3.70;;;2.80;;
21060;SDS011;10689;50.836;3.266;2023-03-29T10:31:50;3.40;;;2.63;;
21060;SDS011;10689;50.836;3.266;2023-03-29T10:34:17;4.40;;;3.05;;
21060;SDS011;10689;50.836;3.266;2023-03-29T10:36:44;3.30;;;2.70;;
21060;SDS011;10689;50.836;3.266;2023-03-29T10:39:18;4.53;;;2.67;;
21060;SDS011;10689;50.836;3.266;2023-03-29T10:41:48;4.38;;;2.55;;
21060;SDS011;10689;50.836;3.266;2023-03-29T10:44:26;7.45;;;2.63;;
21060;SDS011;10689;50.836;3.266;2023-03-29T10:47:06;8.65;;;3.28;;
21060;SDS011;10689;50.836;3.266;2023-03-29T10:49:40;4.22;;;2.55;;
21060;SDS011;10689;50.836;3.266;2023-03-29T10:52:11;3.17;;;2.08;;
21060;SDS011;10689;50.836;3.266;2023-03-29T10:54:38;4.88;;;2.63;;
21060;SDS011;10689;50.836;3.266;2023-03-29T10:57:05;5.75;;;2.10;;
21060;SDS011;10689;50.836;3.266;2023-03-29T11:02:31;2.22;;;1.90;;
21060;SDS011;10689;50.836;3.266;2023-03-29T11:05:04;1.80;;;1.40;;
21060;SDS011;10689;50.836;3.266;2023-03-29T11:13:31;2.47;;;1.60;;
21060;SDS011;10689;50.836;3.266;2023-03-29T11:16:08;1.88;;;1.60;;
21060;SDS011;10689;50.836;3.266;2023-03-29T11:19:10;2.58;;;1.70;;
21060;SDS011;10689;50.836;3.266;2023-03-29T11:32:52;2.95;;;1.50;;
21060;SDS011;10689;50.836;3.266;2023-03-29T11:35:34;2.55;;;1.98;;
21060;SDS011;10689;50.836;3.266;2023-03-29T11:43:26;1.98;;;1.20;;
21060;SDS011;10689;50.836;3.266;2023-03-29T11:45:56;2.78;;;1.67;;
21060;SDS011;10689;50.836;3.266;2023-03-29T11:48:34;2.45;;;1.40;;
21060;SDS011;10689;50.836;3.266;2023-03-29T11:51:19;1.80;;;1.38;;
21060;SDS011;10689;50.836;3.266;2023-03-29T11:54:03;2.17;;;1.30;;
21060;SDS011;10689;50.836;3.266;2023-03-29T11:56:42;1.65;;;1.20;;
21060;SDS011;10689;50.836;3.266;2023-03-29T11:59:15;1.67;;;1.55;;
21060;SDS011;10689;50.836;3.266;2023-03-29T12:01:51;2.05;;;1.48;;
21060;SDS011;10689;50.836;3.266;2023-03-29T12:04:23;1.63;;;1.52;;
21060;SDS011;10689;50.836;3.266;2023-03-29T12:15:39;1.95;;;1.67;;
21060;SDS011;10689;50.836;3.266;2023-03-29T12:18:16;2.72;;;1.88;;
21060;SDS011;10689;50.836;3.266;2023-03-29T12:20:48;1.88;;;1.45;;
21060;SDS011;10689;50.836;3.266;2023-03-29T12:23:20;1.52;;;1.38;;
21060;SDS011;10689;50.836;3.266;2023-03-29T12:31:37;2.13;;;1.58;;
21060;SDS011;10689;50.836;3.266;2023-03-29T12:39:26;3.88;;;2.05;;
21060;SDS011;10689;50.836;3.266;2023-03-29T12:42:03;3.17;;;2.40;;
21060;SDS011;10689;50.836;3.266;2023-03-29T12:44:55;2.20;;;2.00;;
21060;SDS011;10689;50.836;3.266;2023-03-29T12:47:24;3.25;;;1.88;;
21060;SDS011;10689;50.836;3.266;2023-03-29T12:49:55;2.85;;;2.42;;
21060;SDS011;10689;50.836;3.266;2023-03-29T12:52:30;2.30;;;2.10;;
21060;SDS011;10689;50.836;3.266;2023-03-29T12:54:59;2.28;;;2.08;;
21060;SDS011;10689;50.836;3.266;2023-03-29T12:57:56;8.60;;;2.47;;
21060;SDS011;10689;50.836;3.266;2023-03-29T13:02:58;2.45;;;2.17;;
21060;SDS011;10689;50.836;3.266;2023-03-29T13:05:35;2.75;;;2.30;;
21060;SDS011;10689;50.836;3.266;2023-03-29T13:10:56;2.40;;;2.13;;
21060;SDS011;10689;50.836;3.266;2023-03-29T13:13:34;2.95;;;2.50;;
21060;SDS011;10689;50.836;3.266;2023-03-29T13:16:14;2.40;;;2.20;;
21060;SDS011;10689;50.836;3.266;2023-03-29T13:18:46;2.42;;;2.22;;
21060;SDS011;10689;50.836;3.266;2023-03-29T13:21:31;3.83;;;2.50;;
21060;SDS011;10689;50.836;3.266;2023-03-29T13:32:39;4.03;;;3.22;;
21060;SDS011;10689;50.836;3.266;2023-03-29T13:38:21;3.63;;;2.58;;
21060;SDS011;10689;50.836;3.266;2023-03-29T13:45:44;3.90;;;3.17;;
21060;SDS011;10689;50.836;3.266;2023-03-29T13:48:29;4.70;;;3.00;;
21060;SDS011;10689;50.836;3.266;2023-03-29T13:51:00;3.70;;;2.92;;
21060;SDS011;10689;50.836;3.266;2023-03-29T13:53:35;4.47;;;3.53;;
21060;SDS011;10689;50.836;3.266;2023-03-29T13:56:05;4.60;;;3.28;;
21060;SDS011;10689;50.836;3.266;2023-03-29T13:58:42;5.05;;;3.88;;
21060;SDS011;10689;50.836;3.266;2023-03-29T14:01:16;3.65;;;3.22;;
21060;SDS011;10689;50.836;3.266;2023-03-29T14:04:10;4.05;;;3.65;;
21060;SDS011;10689;50.836;3.266;2023-03-29T14:06:40;4.13;;;3.72;;
21060;SDS011;10689;50.836;3.266;2023-03-29T14:09:09;7.35;;;3.47;;
21060;SDS011;10689;50.836;3.266;2023-03-29T14:11:38;6.78;;;3.85;;
21060;SDS011;10689;50.836;3.266;2023-03-29T14:14:10;5.22;;;3.90;;
21060;SDS011;10689;50.836;3.266;2023-03-29T14:16:37;6.63;;;4.03;;
21060;SDS011;10689;50.836;3.266;2023-03-29T14:19:12;5.03;;;3.90;;
21060;SDS011;10689;50.836;3.266;2023-03-29T14:21:43;4.80;;;3.97;;
21060;SDS011;10689;50.836;3.266;2023-03-29T14:24:11;4.63;;;3.83;;
21060;SDS011;10689;50.836;3.266;2023-03-29T14:26:45;4.30;;;3.72;;
21060;SDS011;10689;50.836;3.266;2023-03-29T14:29:12;3.60;;;3.20;;
21060;SDS011;10689;50.836;3.266;2023-03-29T14:31:38;5.88;;;3.78;;
21060;SDS011;10689;50.836;3.266;2023-03-29T14:34:12;6.82;;;3.92;;
21060;SDS011;10689;50.836;3.266;2023-03-29T14:36:40;6.20;;;3.75;;
21060;SDS011;10689;50.836;3.266;2023-03-29T14:39:21;4.78;;;4.20;;
21060;SDS011;10689;50.836;3.266;2023-03-29T14:41:48;4.97;;;4.30;;
21060;SDS011;10689;50.836;3.266;2023-03-29T14:44:31;3.97;;;3.58;;
21060;SDS011;10689;50.836;3.266;2023-03-29T14:47:01;4.18;;;3.72;;
21060;SDS011;10689;50.836;3.266;2023-03-29T14:49:33;5.40;;;4.43;;
21060;SDS011;10689;50.836;3.266;2023-03-29T14:52:00;5.60;;;3.30;;
21060;SDS011;10689;50.836;3.266;2023-03-29T14:54:27;5.28;;;4.43;;
21060;SDS011;10689;50.836;3.266;2023-03-29T14:56:55;4.95;;;4.00;;
21060;SDS011;10689;50.836;3.266;2023-03-29T14:59:27;6.30;;;4.13;;
21060;SDS011;10689;50.836;3.266;2023-03-29T15:02:24;4.07;;;3.53;;
21060;SDS011;10689;50.836;3.266;2023-03-29T15:04:57;5.63;;;4.50;;
21060;SDS011;10689;50.836;3.266;2023-03-29T15:07:49;5.68;;;4.05;;
21060;SDS011;10689;50.836;3.266;2023-03-29T15:10:30;4.40;;;3.72;;
21060;SDS011;10689;50.836;3.266;2023-03-29T15:13:00;5.57;;;4.10;;
21060;SDS011;10689;50.836;3.266;2023-03-29T15:15:29;7.30;;;4.32;;
21060;SDS011;10689;50.836;3.266;2023-03-29T15:17:57;5.35;;;4.00;;
21060;SDS011;10689;50.836;3.266;2023-03-29T15:20:32;4.72;;;4.00;;
21060;SDS011;10689;50.836;3.266;2023-03-29T15:25:56;4.97;;;3.60;;
21060;SDS011;10689;50.836;3.266;2023-03-29T15:28:29;6.57;;;3.92;;
21060;SDS011;10689;50.836;3.266;2023-03-29T15:31:32;5.78;;;3.85;;
21060;SDS011;10689;50.836;3.266;2023-03-29T15:34:26;6.72;;;4.10;;
21060;SDS011;10689;50.836;3.266;2023-03-29T15:37:05;6.80;;;3.58;;
21060;SDS011;10689;50.836;3.266;2023-03-29T15:39:40;6.03;;;3.67;;
21060;SDS011;10689;50.836;3.266;2023-03-29T15:42:11;4.95;;;4.05;;
21060;SDS011;10689;50.836;3.266;2023-03-29T15:44:46;5.57;;;3.83;;
21060;SDS011;10689;50.836;3.266;2023-03-29T15:47:17;5.45;;;3.20;;
21060;SDS011;10689;50.836;3.266;2023-03-29T15:49:44;3.95;;;2.90;;
21060;SDS011;10689;50.836;3.266;2023-03-29T15:52:11;3.90;;;2.75;;
21060;SDS011;10689;50.836;3.266;2023-03-29T15:54:42;6.68;;;3.25;;
21060;SDS011;10689;50.836;3.266;2023-03-29T15:57:14;3.30;;;2.60;;
21060;SDS011;10689;50.836;3.266;2023-03-29T15:59:42;6.72;;;3.15;;
21060;SDS011;10689;50.836;3.266;2023-03-29T16:02:15;6.07;;;3.03;;
21060;SDS011;10689;50.836;3.266;2023-03-29T16:04:53;5.13;;;2.38;;
21060;SDS011;10689;50.836;3.266;2023-03-29T16:07:24;3.50;;;2.30;;
21060;SDS011;10689;50.836;3.266;2023-03-29T16:09:50;3.78;;;2.58;;
21060;SDS011;10689;50.836;3.266;2023-03-29T16:12:15;5.18;;;2.55;;
21060;SDS011;10689;50.836;3.266;2023-03-29T16:14:41;7.40;;;2.83;;
21060;SDS011;10689;50.836;3.266;2023-03-29T16:17:07;6.05;;;2.55;;
21060;SDS011;10689;50.836;3.266;2023-03-29T16:19:33;4.43;;;2.78;;
21060;SDS011;10689;50.836;3.266;2023-03-29T16:22:00;3.60;;;2.80;;
21060;SDS011;10689;50.836;3.266;2023-03-29T16:24:31;3.85;;;2.75;;
21060;SDS011;10689;50.836;3.266;2023-03-29T16:27:03;7.18;;;3.50;;
21060;SDS011;10689;50.836;3.266;2023-03-29T16:29:33;4.45;;;2.63;;
21060;SDS011;10689;50.836;3.266;2023-03-29T16:32:29;2.50;;;2.30;;
21060;SDS011;10689;50.836;3.266;2023-03-29T16:34:55;7.45;;;2.70;;
21060;SDS011;10689;50.836;3.266;2023-03-29T16:37:22;5.05;;;3.28;;
21060;SDS011;10689;50.836;3.266;2023-03-29T16:39:48;5.30;;;3.30;;
21060;SDS011;10689;50.836;3.266;2023-03-29T16:42:14;5.03;;;2.65;;
21060;SDS011;10689;50.836;3.266;2023-03-29T16:44:40;4.85;;;2.55;;
21060;SDS011;10689;50.836;3.266;2023-03-29T16:47:09;5.75;;;3.13;;
21060;SDS011;10689;50.836;3.266;2023-03-29T16:49:35;4.95;;;3.28;;
21060;SDS011;10689;50.836;3.266;2023-03-29T16:52:01;4.10;;;3.10;;
21060;SDS011;10689;50.836;3.266;2023-03-29T16:54:28;5.68;;;2.75;;
21060;SDS011;10689;50.836;3.266;2023-03-29T16:56:55;5.75;;;3.72;;
21060;SDS011;10689;50.836;3.266;2023-03-29T16:59:21;8.02;;;2.92;;
21060;SDS011;10689;50.836;3.266;2023-03-29T17:01:47;4.40;;;2.85;;
21060;SDS011;10689;50.836;3.266;2023-03-29T17:04:14;3.63;;;2.92;;
21060;SDS011;10689;50.836;3.266;2023-03-29T17:06:58;3.80;;;3.08;;
21060;SDS011;10689;50.836;3.266;2023-03-29T17:09:35;3.80;;;2.97;;
21060;SDS011;10689;50.836;3.266;2023-03-29T17:12:06;4.18;;;2.70;;
21060;SDS011;10689;50.836;3.266;2023-03-29T17:14:32;3.97;;;2.13;;
21060;SDS011;10689;50.836;3.266;2023-03-29T17:17:01;4.43;;;2.70;;
21060;SDS011;10689;50.836;3.266;2023-03-29T17:19:27;3.88;;;2.45;;
21060;SDS011;10689;50.836;3.266;2023-03-29T17:22:02;3.83;;;2.72;;
21060;SDS011;10689;50.836;3.266;2023-03-29T17:24:28;5.95;;;3.28;;
21060;SDS011;10689;50.836;3.266;2023-03-29T17:27:12;3.13;;;2.83;;
21060;SDS011;10689;50.836;3.266;2023-03-29T17:29:40;3.65;;;2.58;;
21060;SDS011;10689;50.836;3.266;2023-03-29T17:32:37;4.57;;;2.58;;